Погода Бузанына неделю

Витебская область, Белоруссия

22 - 28 мая
  • 22мая
    Сегодня
    +13°
    +22°
    Небольшая облачность
    ВремяПогодаТемператураВлажностьДавлениеВетер, м/сВероятность осадков
    00:00Облачно с прояснениями+14°C87 %751 мм2.0 м/с2 %
    03:00Практически безоблачно+13°C93 %752 мм2.3 м/с2 %
    06:00Ясно и безоблачно+13°C92 %752 мм2.8 м/с2 %
    09:00Ясно и безоблачно+18°C77 %752 мм2.3 м/с2 %
    12:00Практически безоблачно+22°C66 %752 мм3.4 м/с6 %
    15:00Небольшая облачность+22°C61 %751 мм3.4 м/с30 %
    18:00Облачно с прояснениями+20°C74 %752 мм3.2 м/с41 %
    21:00Практически безоблачно+18°C81 %752 мм2.6 м/с3 %
  • 23мая
    Четверг
    +12°
    +24°
    Ясно и безоблачно
    ВремяПогодаТемператураВлажностьДавлениеВетер, м/сВероятность осадков
    00:00Ясно и безоблачно+15°C90 %752 мм3.3 м/с2 %
    03:00Ясно и безоблачно+14°C92 %753 мм3.6 м/с2 %
    06:00Ясно и безоблачно+14°C72 %754 мм4.3 м/с2 %
    09:00Ясно и безоблачно+18°C62 %755 мм3.6 м/с2 %
    12:00Ясно и безоблачно+21°C52 %755 мм4.9 м/с1 %
    15:00Ясно и безоблачно+23°C44 %755 мм5.1 м/с2 %
    18:00Ясно и безоблачно+23°C46 %755 мм4.5 м/с3 %
    21:00Ясно и безоблачно+19°C56 %756 мм3.7 м/с2 %
  • 24мая
    Пятница
    +10°
    +22°
    Ясно и безоблачно
    ВремяПогодаТемператураВлажностьДавлениеВетер, м/сВероятность осадков
    00:00Ясно и безоблачно+16°C59 %757 мм4.4 м/с2 %
    03:00Ясно и безоблачно+14°C61 %758 мм4.2 м/с2 %
    06:00Ясно и безоблачно+12°C64 %759 мм4.3 м/с2 %
    09:00Ясно и безоблачно+16°C56 %759 мм3.9 м/с2 %
    12:00Ясно и безоблачно+19°C47 %759 мм4.4 м/с2 %
    15:00Ясно и безоблачно+21°C44 %759 мм4.7 м/с2 %
    18:00Ясно и безоблачно+21°C43 %758 мм4.3 м/с2 %
    21:00Ясно и безоблачно+17°C58 %758 мм2.7 м/с2 %
  • 25мая
    Суббота
    +10°
    +24°
    Ясно и безоблачно
    ВремяПогодаТемператураВлажностьДавлениеВетер, м/сВероятность осадков
    00:00Ясно и безоблачно+14°C65 %758 мм3.5 м/с2 %
    03:00Ясно и безоблачно+12°C72 %758 мм3.5 м/с2 %
    06:00Ясно и безоблачно+12°C73 %758 мм3.6 м/с2 %
    09:00Ясно и безоблачно+17°C60 %758 мм3.1 м/с2 %
    12:00Ясно и безоблачно+20°C48 %757 мм3.7 м/с3 %
    15:00Ясно и безоблачно+23°C40 %757 мм4.3 м/с7 %
    18:00Ясно и безоблачно+22°C42 %756 мм3.7 м/с7 %
    21:00Ясно и безоблачно+17°C61 %755 мм2.5 м/с3 %
  • 26мая
    Воскресенье
    +10°
    +24°
    Облачно с прояснениями
    ВремяПогодаТемператураВлажностьДавлениеВетер, м/сВероятность осадков
    00:00Ясно и безоблачно+14°C66 %756 мм2.9 м/с2 %
    03:00Ясно и безоблачно+11°C76 %756 мм2.1 м/с2 %
    06:00Ясно и безоблачно+11°C77 %756 мм2.1 м/с4 %
    09:00Небольшая облачность+18°C61 %757 мм1.4 м/с2 %
    12:00Небольшая облачность+21°C40 %757 мм2.5 м/с4 %
    15:00Облачно с прояснениями+24°C37 %756 мм2.3 м/с8 %
    18:00Ясно и безоблачно+24°C38 %755 мм1.8 м/с8 %
    21:00Ясно и безоблачно+17°C69 %756 мм2.3 м/с5 %
Мы используем cookies
Соглашаюсь